createdAt,value
2018-02-24T00:01:52.729Z,91.20
2018-02-24T00:04:20.508Z,91.10
2018-02-24T00:06:48.314Z,91.30
2018-02-24T00:09:16.106Z,91.10
2018-02-24T00:11:43.847Z,91.20
2018-02-24T00:14:12.606Z,91.30
2018-02-24T00:16:40.366Z,91.20
2018-02-24T00:19:08.290Z,91.30
2018-02-24T00:21:36.328Z,91.40
2018-02-24T00:24:04.106Z,91.40
2018-02-24T00:26:31.926Z,91.50
2018-02-24T00:28:59.726Z,91.60
2018-02-24T00:31:27.886Z,91.60
2018-02-24T00:33:56.386Z,91.70
2018-02-24T00:36:24.186Z,91.70
2018-02-24T00:38:51.986Z,91.70
2018-02-24T00:41:19.965Z,91.60
2018-02-24T00:43:47.765Z,91.60
2018-02-24T00:46:15.453Z,91.50
2018-02-24T00:48:43.245Z,91.40
2018-02-24T00:51:11.087Z,91.40
2018-02-24T00:53:38.927Z,91.50
2018-02-24T00:56:06.851Z,91.60
2018-02-24T00:58:34.686Z,91.70
2018-02-24T01:01:02.592Z,91.70
2018-02-24T01:03:30.550Z,91.60
2018-02-24T01:05:58.369Z,91.70
2018-02-24T01:08:26.228Z,91.80
2018-02-24T01:10:54.109Z,92.20
2018-02-24T01:13:21.877Z,92.00
2018-02-24T01:15:49.605Z,92.00
2018-02-24T01:18:17.345Z,92.00
2018-02-24T01:20:45.291Z,91.90
2018-02-24T01:23:13.065Z,91.80
2018-02-24T01:25:40.850Z,91.70
2018-02-24T01:28:08.706Z,91.60
2018-02-24T01:30:37.368Z,91.40
2018-02-24T01:33:05.488Z,91.50
2018-02-24T01:35:33.368Z,91.60
2018-02-24T01:38:01.569Z,91.20
2018-02-24T01:40:29.407Z,91.00
2018-02-24T01:42:57.208Z,91.10
2018-02-24T01:45:25.093Z,91.40
2018-02-24T01:47:53.108Z,91.00
2018-02-24T01:50:21.308Z,90.80
2018-02-24T01:52:49.108Z,90.90
2018-02-24T01:55:16.868Z,90.80
2018-02-24T01:57:45.414Z,90.90
2018-02-24T02:00:14.042Z,90.90
2018-02-24T02:02:41.906Z,90.90
2018-02-24T02:05:09.846Z,90.90
2018-02-24T02:07:37.646Z,90.60
2018-02-24T02:10:05.408Z,90.40
2018-02-24T02:12:33.226Z,90.60
2018-02-24T02:17:33.205Z,91.00
2018-02-24T02:20:01.885Z,90.40
2018-02-24T02:22:29.687Z,90.40
2018-02-24T02:24:57.526Z,90.60
2018-02-24T02:27:25.307Z,90.80
2018-02-24T02:29:53.146Z,91.00
2018-02-24T02:32:21.646Z,91.10
2018-02-24T02:34:49.738Z,91.10
2018-02-24T02:37:17.613Z,91.10
2018-02-24T02:39:45.367Z,91.00
2018-02-24T02:42:13.686Z,90.90
2018-02-24T02:44:42.206Z,91.10
2018-02-24T02:47:10.047Z,91.10
2018-02-24T02:49:38.185Z,91.10
2018-02-24T02:52:06.246Z,91.10
2018-02-24T02:54:34.066Z,91.00
2018-02-24T02:57:02.187Z,91.00
2018-02-24T02:59:29.906Z,90.90
2018-02-24T03:01:57.647Z,90.90
2018-02-24T03:04:25.547Z,90.70
2018-02-24T03:06:53.547Z,90.90
2018-02-24T03:09:21.346Z,90.80
2018-02-24T03:11:49.094Z,90.30
2018-02-24T03:14:16.926Z,90.30
2018-02-24T03:16:44.692Z,90.20
2018-02-24T03:19:13.366Z,90.70
2018-02-24T03:21:41.146Z,90.70
2018-02-24T03:24:09.865Z,90.90
2018-02-24T03:26:37.726Z,90.80
2018-02-24T03:29:05.585Z,90.60
2018-02-24T03:31:33.427Z,90.70
2018-02-24T03:34:01.165Z,90.70
2018-02-24T03:36:28.987Z,90.40
2018-02-24T03:38:56.966Z,90.40
2018-02-24T03:41:25.506Z,90.40
2018-02-24T03:43:53.846Z,90.40
2018-02-24T03:46:28.366Z,90.30
2018-02-24T03:48:56.247Z,90.50
2018-02-24T03:51:24.048Z,90.50
2018-02-24T03:53:51.845Z,90.60
2018-02-24T03:56:19.725Z,90.60
2018-02-24T03:58:47.726Z,90.60
2018-02-24T04:01:15.785Z,90.60
2018-02-24T04:03:43.505Z,90.50
2018-02-24T04:06:12.066Z,90.50
2018-02-24T04:08:39.886Z,90.50
2018-02-24T04:11:07.747Z,90.30
2018-02-24T04:13:35.507Z,90.30
2018-02-24T04:16:03.247Z,90.50
2018-02-24T04:18:31.969Z,90.60
2018-02-24T04:20:59.886Z,90.50
2018-02-24T04:23:27.805Z,90.50
2018-02-24T04:25:55.726Z,90.50
2018-02-24T04:28:23.586Z,90.70
2018-02-24T04:30:51.526Z,90.60
2018-02-24T04:33:20.085Z,90.60
2018-02-24T04:35:47.905Z,90.60
2018-02-24T04:38:15.686Z,90.80
2018-02-24T04:40:43.526Z,91.00
2018-02-24T04:43:11.666Z,91.30
2018-02-24T04:45:39.386Z,91.00
2018-02-24T04:48:07.232Z,90.80
2018-02-24T04:50:35.228Z,90.70
2018-02-24T04:53:03.006Z,90.60
2018-02-24T04:55:30.907Z,90.60
2018-02-24T04:57:58.766Z,90.30
2018-02-24T05:00:26.525Z,90.20
2018-02-24T05:02:54.306Z,90.30
2018-02-24T05:05:22.745Z,90.20
2018-02-24T05:07:50.547Z,90.50
2018-02-24T05:10:18.306Z,90.30
2018-02-24T05:12:46.825Z,90.20
2018-02-24T05:15:14.566Z,90.20
2018-02-24T05:17:43.206Z,90.80
2018-02-24T05:20:11.164Z,90.80
2018-02-24T05:22:38.913Z,90.80
2018-02-24T05:25:06.647Z,90.70
2018-02-24T05:27:34.452Z,90.70
2018-02-24T05:30:03.405Z,91.10
2018-02-24T05:32:31.227Z,90.80
2018-02-24T05:34:59.146Z,90.80
2018-02-24T05:37:27.126Z,90.70
2018-02-24T05:39:55.826Z,90.90
2018-02-24T05:42:24.646Z,90.50
2018-02-24T05:44:52.385Z,90.50
2018-02-24T05:47:20.266Z,90.30
2018-02-24T05:49:48.105Z,90.20
2018-02-24T05:52:15.965Z,90.30
2018-02-24T05:54:43.866Z,90.30
2018-02-24T05:57:11.646Z,90.20
2018-02-24T05:59:40.387Z,90.40
2018-02-24T06:02:08.930Z,90.00
2018-02-24T06:04:37.509Z,90.20
2018-02-24T06:07:05.349Z,90.20
2018-02-24T06:09:34.069Z,90.30
2018-02-24T06:12:01.831Z,90.30
2018-02-24T06:14:29.870Z,90.10
2018-02-24T06:16:57.649Z,90.20
2018-02-24T06:19:25.548Z,90.00
2018-02-24T06:21:53.407Z,90.00
2018-02-24T06:24:21.148Z,90.20
2018-02-24T06:26:49.029Z,89.70
2018-02-24T06:29:16.926Z,89.50
2018-02-24T06:31:45.526Z,90.00
2018-02-24T06:34:13.384Z,90.00
2018-02-24T06:36:41.306Z,90.10
2018-02-24T06:39:09.109Z,90.30
2018-02-24T06:41:36.965Z,89.90
2018-02-24T06:44:04.786Z,90.00
2018-02-24T06:46:32.565Z,90.10
2018-02-24T06:49:00.367Z,90.30
2018-02-24T06:51:28.387Z,90.30
2018-02-24T06:53:56.267Z,90.40
2018-02-24T06:56:25.134Z,90.30
2018-02-24T06:58:52.946Z,90.30
2018-02-24T07:01:20.685Z,90.40
2018-02-24T07:03:48.566Z,90.00
2018-02-24T07:06:16.385Z,90.00
2018-02-24T07:08:44.386Z,90.30
2018-02-24T07:11:12.226Z,90.20
2018-02-24T07:13:40.066Z,90.10
2018-02-24T07:16:07.845Z,89.70
2018-02-24T07:18:35.585Z,89.80
2018-02-24T07:21:04.225Z,89.30
2018-02-24T07:23:31.946Z,89.30
2018-02-24T07:25:59.610Z,89.60
2018-02-24T07:28:27.327Z,89.00
2018-02-24T07:30:55.026Z,88.00
2018-02-24T07:33:22.786Z,88.10
2018-02-24T07:35:50.608Z,89.00
2018-02-24T07:38:18.326Z,88.90
2018-02-24T07:40:46.022Z,88.10
2018-02-24T07:43:14.575Z,90.20
2018-02-24T07:45:42.290Z,89.60
2018-02-24T07:48:10.766Z,89.20
2018-02-24T07:50:38.570Z,89.20
2018-02-24T07:53:06.308Z,89.30
2018-02-24T07:55:34.047Z,88.30
2018-02-24T07:58:01.845Z,88.40
2018-02-24T08:00:29.813Z,88.60
2018-02-24T08:02:57.549Z,88.00
2018-02-24T08:05:25.309Z,88.50
2018-02-24T08:07:53.071Z,88.10
2018-02-24T08:10:20.770Z,88.70
2018-02-24T08:12:48.491Z,89.10
2018-02-24T08:15:16.990Z,89.00
2018-02-24T08:17:44.807Z,88.90
2018-02-24T08:20:12.530Z,88.90
2018-02-24T08:22:41.009Z,88.80
2018-02-24T08:25:09.548Z,88.60
2018-02-24T08:27:38.068Z,88.80
2018-02-24T08:30:05.928Z,88.90
2018-02-24T08:35:05.728Z,87.80
2018-02-24T08:37:33.488Z,88.40
2018-02-24T08:40:01.209Z,88.40
2018-02-24T08:42:29.041Z,88.30
2018-02-24T08:44:56.766Z,88.40
2018-02-24T08:47:24.493Z,88.60
2018-02-24T08:52:24.919Z,88.10
2018-02-24T08:54:52.686Z,88.10
2018-02-24T08:57:20.446Z,88.20
2018-02-24T08:59:48.206Z,88.60
2018-02-24T09:02:15.905Z,88.60
2018-02-24T09:04:44.205Z,88.60
2018-02-24T09:07:12.065Z,88.80
2018-02-24T09:09:39.825Z,88.40
2018-02-24T09:12:07.646Z,88.60
2018-02-24T09:14:35.488Z,88.50
2018-02-24T09:17:03.414Z,88.60
2018-02-24T09:19:31.246Z,88.30
2018-02-24T09:21:59.013Z,88.20
2018-02-24T09:24:27.108Z,88.10
2018-02-24T09:26:55.015Z,87.90
2018-02-24T09:29:22.886Z,88.00
2018-02-24T09:31:50.787Z,88.00
2018-02-24T09:34:18.586Z,87.20
2018-02-24T09:36:46.305Z,87.80
2018-02-24T09:39:14.246Z,87.90
2018-02-24T09:41:42.046Z,87.30
2018-02-24T09:44:10.066Z,86.60
2018-02-24T09:46:37.867Z,86.90
2018-02-24T09:49:06.486Z,86.60
2018-02-24T09:51:34.447Z,86.50
2018-02-24T09:54:03.046Z,87.50
2018-02-24T09:56:31.069Z,87.50
2018-02-24T09:58:58.992Z,87.70
2018-02-24T10:01:27.773Z,88.10
2018-02-24T10:03:55.717Z,87.90
2018-02-24T10:06:23.699Z,87.90
2018-02-24T10:08:51.569Z,86.90
2018-02-24T10:11:19.441Z,86.30
2018-02-24T10:13:47.170Z,86.70
2018-02-24T10:16:15.070Z,86.70
2018-02-24T10:18:42.969Z,87.10
2018-02-24T10:21:11.509Z,86.40
2018-02-24T10:23:40.031Z,86.90
2018-02-24T10:26:07.970Z,86.90
2018-02-24T10:28:35.887Z,86.30
2018-02-24T10:31:03.927Z,85.60
2018-02-24T10:33:31.728Z,85.40
2018-02-24T10:36:00.608Z,86.40
2018-02-24T10:38:29.288Z,85.40
2018-02-24T10:40:57.109Z,85.40
2018-02-24T10:43:25.248Z,85.60
2018-02-24T10:45:53.122Z,85.40
2018-02-24T10:48:22.049Z,86.60
2018-02-24T10:50:51.348Z,86.00
2018-02-24T10:53:20.107Z,85.30
2018-02-24T10:55:47.925Z,85.30
2018-02-24T10:58:16.588Z,85.50
2018-02-24T11:00:45.153Z,85.50
2018-02-24T11:03:12.868Z,85.40
2018-02-24T11:05:41.944Z,86.00
2018-02-24T11:08:09.725Z,85.90
2018-02-24T11:10:37.510Z,84.80
2018-02-24T11:13:06.131Z,86.10
2018-02-24T11:15:33.867Z,85.40
2018-02-24T11:18:01.698Z,85.30
2018-02-24T11:20:29.608Z,85.70
2018-02-24T11:22:57.544Z,85.80
2018-02-24T11:25:25.706Z,85.60
2018-02-24T11:27:53.596Z,85.60
2018-02-24T11:30:21.647Z,85.30
2018-02-24T11:32:49.487Z,84.70
2018-02-24T11:35:17.294Z,84.30
2018-02-24T11:37:45.253Z,84.40
2018-02-24T11:40:12.941Z,84.70
2018-02-24T11:42:40.670Z,83.60
2018-02-24T11:45:08.626Z,84.30
2018-02-24T11:47:36.506Z,84.00
2018-02-24T11:50:04.314Z,83.70
2018-02-24T11:52:32.348Z,83.00
2018-02-24T11:55:00.949Z,84.00
2018-02-24T11:57:28.908Z,83.90
2018-02-24T11:59:57.028Z,82.80
2018-02-24T12:02:24.898Z,83.40
2018-02-24T12:04:53.750Z,83.60
2018-02-24T12:07:21.968Z,83.60
2018-02-24T12:09:49.893Z,83.50
2018-02-24T12:12:17.688Z,82.60
2018-02-24T12:14:45.588Z,83.50
2018-02-24T12:17:14.238Z,81.90
2018-02-24T12:19:42.147Z,81.90
2018-02-24T12:22:10.009Z,82.10
2018-02-24T12:24:37.851Z,82.90
2018-02-24T12:27:05.697Z,82.30
2018-02-24T12:29:33.549Z,81.40
2018-02-24T12:32:01.412Z,81.80
2018-02-24T12:34:31.225Z,81.90
2018-02-24T12:36:59.046Z,81.90
2018-02-24T12:39:27.008Z,82.20
2018-02-24T12:44:26.991Z,81.80
2018-02-24T12:46:54.790Z,80.10
2018-02-24T12:49:22.679Z,78.60
2018-02-24T12:51:50.460Z,77.70
2018-02-24T12:54:18.338Z,77.50
2018-02-24T12:56:46.318Z,79.00
2018-02-24T12:59:14.371Z,77.90
2018-02-24T13:01:42.397Z,75.80
2018-02-24T13:04:11.210Z,75.30
2018-02-24T13:06:39.010Z,75.30
2018-02-24T13:09:07.491Z,77.80
2018-02-24T13:11:35.390Z,76.90
2018-02-24T13:14:04.550Z,74.80
2018-02-24T13:16:32.851Z,74.80
2018-02-24T13:19:00.690Z,74.00
2018-02-24T13:21:29.250Z,73.00
2018-02-24T13:23:57.197Z,72.20
2018-02-24T13:26:25.250Z,67.90
2018-02-24T13:28:53.729Z,66.40
2018-02-24T13:31:23.073Z,67.10
2018-02-24T13:33:51.412Z,68.30
2018-02-24T13:36:20.250Z,66.90
2018-02-24T13:38:48.250Z,66.90
2018-02-24T13:41:16.452Z,68.40
2018-02-24T13:43:44.470Z,68.10
2018-02-24T13:46:12.430Z,68.10
2018-02-24T13:48:40.871Z,64.90
2018-02-24T13:51:08.787Z,65.40
2018-02-24T13:53:37.127Z,63.10
2018-02-24T13:56:05.072Z,63.20
2018-02-24T13:58:33.247Z,61.90
2018-02-24T14:01:01.078Z,65.20
2018-02-24T14:03:29.649Z,56.50
2018-02-24T14:05:58.687Z,56.40
2018-02-24T14:08:26.908Z,54.50
2018-02-24T14:10:55.067Z,50.20
2018-02-24T14:13:24.727Z,48.90
2018-02-24T14:15:52.706Z,48.90
2018-02-24T14:18:20.647Z,51.40
2018-02-24T14:20:48.577Z,51.80
2018-02-24T14:23:17.568Z,52.90
2018-02-24T14:25:46.369Z,52.90
2018-02-24T14:28:14.929Z,54.00
2018-02-24T14:30:43.487Z,48.90
2018-02-24T14:33:11.427Z,48.90
2018-02-24T14:35:40.109Z,49.20
2018-02-24T14:38:07.968Z,49.10
2018-02-24T14:40:35.807Z,48.10
2018-02-24T14:43:04.996Z,50.60
2018-02-24T14:45:32.768Z,50.20
2018-02-24T14:48:00.586Z,48.20
2018-02-24T14:50:28.730Z,47.80
2018-02-24T14:52:57.326Z,51.00
2018-02-24T14:55:25.407Z,50.60
2018-02-24T14:57:53.567Z,49.90
2018-02-24T15:00:21.414Z,49.00
2018-02-24T15:02:51.815Z,49.40
2018-02-24T15:05:19.875Z,49.40
2018-02-24T15:07:48.096Z,51.20
2018-02-24T15:10:15.997Z,58.70
2018-02-24T15:12:43.906Z,62.90
2018-02-24T15:15:11.728Z,64.10
2018-02-24T15:17:41.071Z,65.00
2018-02-24T15:20:09.028Z,65.50
2018-02-24T15:22:37.367Z,66.10
2018-02-24T15:25:07.096Z,65.80
2018-02-24T15:27:35.133Z,66.40
2018-02-24T15:30:02.948Z,66.00
2018-02-24T15:32:31.018Z,66.40
2018-02-24T15:34:58.968Z,66.80
2018-02-24T15:37:27.041Z,66.10
2018-02-24T15:39:55.599Z,66.90
2018-02-24T15:42:23.430Z,66.30
2018-02-24T15:44:51.348Z,67.20
2018-02-24T15:47:19.248Z,65.90
2018-02-24T15:49:47.156Z,66.00
2018-02-24T15:52:15.117Z,67.70
2018-02-24T15:54:42.910Z,67.20
2018-02-24T15:57:10.809Z,67.40
2018-02-24T15:59:39.048Z,68.00
2018-02-24T16:02:07.968Z,69.30
2018-02-24T16:04:35.970Z,64.60
2018-02-24T16:07:03.751Z,67.20
2018-02-24T16:09:32.574Z,68.40
2018-02-24T16:12:00.411Z,68.40
2018-02-24T16:14:28.611Z,68.90
2018-02-24T16:16:56.530Z,69.60
2018-02-24T16:19:24.391Z,70.20
2018-02-24T16:21:52.212Z,69.20
2018-02-24T16:24:19.951Z,67.80
2018-02-24T16:26:47.831Z,70.00
2018-02-24T16:29:15.689Z,70.00
2018-02-24T16:31:43.734Z,65.20
2018-02-24T16:34:12.349Z,58.90
2018-02-24T16:36:40.244Z,58.80
2018-02-24T16:39:07.968Z,56.70
2018-02-24T16:41:35.828Z,56.60
2018-02-24T16:44:03.941Z,56.60
2018-02-24T16:46:31.884Z,56.40
2018-02-24T16:48:59.917Z,56.00
2018-02-24T16:51:27.792Z,58.40
2018-02-24T16:53:55.684Z,60.30
2018-02-24T16:56:23.652Z,60.70
2018-02-24T16:58:51.514Z,59.70
2018-02-24T17:01:19.427Z,58.40
2018-02-24T17:03:47.428Z,58.40
2018-02-24T17:06:15.439Z,58.20
2018-02-24T17:08:43.508Z,58.70
2018-02-24T17:11:11.648Z,59.10
2018-02-24T17:13:41.869Z,59.70
2018-02-24T17:16:09.647Z,59.60
2018-02-24T17:18:37.607Z,59.40
2018-02-24T17:21:05.453Z,58.30
2018-02-24T17:23:33.253Z,58.20
2018-02-24T17:26:01.168Z,58.70
2018-02-24T17:28:29.128Z,58.50
2018-02-24T17:30:57.689Z,60.30
2018-02-24T17:33:25.571Z,60.20
2018-02-24T17:35:53.308Z,59.40
2018-02-24T17:38:21.129Z,59.70
2018-02-24T17:40:49.709Z,60.10
2018-02-24T17:43:17.708Z,60.20
2018-02-24T17:45:45.628Z,60.80
2018-02-24T17:48:13.487Z,61.60
2018-02-24T17:50:42.270Z,59.50
2018-02-24T17:53:10.487Z,59.50
2018-02-24T17:55:38.347Z,59.10
2018-02-24T17:58:06.171Z,59.90
2018-02-24T18:00:34.716Z,59.90
2018-02-24T18:03:03.587Z,61.60
2018-02-24T18:05:31.506Z,60.90
2018-02-24T18:07:59.407Z,60.30
2018-02-24T18:10:27.247Z,60.20
2018-02-24T18:12:55.175Z,61.30
2018-02-24T18:15:23.248Z,62.80
2018-02-24T18:17:51.394Z,63.10
2018-02-24T18:20:20.728Z,61.10
2018-02-24T18:22:49.346Z,63.80
2018-02-24T18:25:17.470Z,63.80
2018-02-24T18:27:45.832Z,62.80
2018-02-24T18:30:13.855Z,63.40
2018-02-24T18:32:41.807Z,64.20
2018-02-24T18:35:09.649Z,64.40
2018-02-24T18:37:37.531Z,64.50
2018-02-24T18:40:05.671Z,64.30
2018-02-24T18:42:33.568Z,64.20
2018-02-24T18:45:01.585Z,63.50
2018-02-24T18:47:29.574Z,64.20
2018-02-24T18:49:57.420Z,64.20
2018-02-24T18:52:25.313Z,64.80
2018-02-24T18:54:53.106Z,65.10
2018-02-24T18:57:21.010Z,65.20
2018-02-24T18:59:48.866Z,65.00
2018-02-24T19:02:17.748Z,65.00
2018-02-24T19:04:45.746Z,64.00
2018-02-24T19:07:13.648Z,63.60
2018-02-24T19:09:41.611Z,63.50
2018-02-24T19:12:09.473Z,64.00
2018-02-24T19:14:37.700Z,64.70
2018-02-24T19:17:05.771Z,66.00
2018-02-24T19:19:33.630Z,65.00
2018-02-24T19:22:01.587Z,63.30
2018-02-24T19:24:29.629Z,64.00
2018-02-24T19:26:57.606Z,65.20
2018-02-24T19:29:27.477Z,62.70
2018-02-24T19:31:55.268Z,64.00
2018-02-24T19:34:23.256Z,61.50
2018-02-24T19:36:51.827Z,58.40
2018-02-24T19:39:19.647Z,58.40
2018-02-24T19:41:47.669Z,57.20
2018-02-24T19:44:15.468Z,56.40
2018-02-24T19:46:43.413Z,55.40
2018-02-24T19:49:11.371Z,56.00
2018-02-24T19:51:39.251Z,56.00
2018-02-24T19:54:07.110Z,56.50
2018-02-24T19:56:34.950Z,57.60
2018-02-24T19:59:03.030Z,58.20
2018-02-24T20:01:30.753Z,59.50
2018-02-24T20:03:58.692Z,59.10
2018-02-24T20:06:26.510Z,59.10
2018-02-24T20:08:55.679Z,60.10
2018-02-24T20:11:23.609Z,62.00
2018-02-24T20:13:51.451Z,61.50
2018-02-24T20:16:19.370Z,60.30
2018-02-24T20:18:47.509Z,61.50
2018-02-24T20:21:15.389Z,61.60
2018-02-24T20:23:43.258Z,59.90
2018-02-24T20:26:11.289Z,60.40
2018-02-24T20:28:39.288Z,62.80
2018-02-24T20:31:07.294Z,64.50
2018-02-24T20:33:35.069Z,66.40
2018-02-24T20:36:03.772Z,67.80
2018-02-24T20:38:32.608Z,68.60
2018-02-24T20:41:00.410Z,68.50
2018-02-24T20:43:28.249Z,68.70
2018-02-24T20:45:57.048Z,69.30
2018-02-24T20:48:25.137Z,69.30
2018-02-24T20:50:53.080Z,69.40
2018-02-24T20:53:21.007Z,69.80
2018-02-24T20:55:48.847Z,70.00
2018-02-24T20:58:16.831Z,69.50
2018-02-24T21:00:44.707Z,68.70
2018-02-24T21:03:12.752Z,68.60
2018-02-24T21:05:40.711Z,69.10
2018-02-24T21:08:08.752Z,69.90
2018-02-24T21:10:36.551Z,70.00
2018-02-24T21:13:04.420Z,69.00
2018-02-24T21:15:32.239Z,67.50
2018-02-24T21:18:00.014Z,66.70
2018-02-24T21:20:28.070Z,66.30
2018-02-24T21:22:55.870Z,65.30
2018-02-24T21:25:23.650Z,63.30
2018-02-24T21:27:52.051Z,61.80
2018-02-24T21:30:21.311Z,60.00
2018-02-24T21:32:49.211Z,57.70
2018-02-24T21:35:17.092Z,58.20
2018-02-24T21:37:45.132Z,57.50
2018-02-24T21:40:13.010Z,56.30
2018-02-24T21:42:40.785Z,55.50
2018-02-24T21:45:08.700Z,54.90
2018-02-24T21:47:36.650Z,55.00
2018-02-24T21:50:04.471Z,55.30
2018-02-24T21:52:32.412Z,56.20
2018-02-24T21:55:00.346Z,56.20
2018-02-24T21:57:28.507Z,56.10
2018-02-24T21:59:56.318Z,55.30
2018-02-24T22:02:24.295Z,55.10
2018-02-24T22:04:52.235Z,54.70
2018-02-24T22:07:21.878Z,54.30
2018-02-24T22:09:49.729Z,55.00
2018-02-24T22:12:17.885Z,54.60
2018-02-24T22:14:45.725Z,54.50
2018-02-24T22:17:13.608Z,54.40
2018-02-24T22:19:41.808Z,54.10
2018-02-24T22:22:09.881Z,53.50
2018-02-24T22:24:37.812Z,53.60
2018-02-24T22:27:06.953Z,54.70
2018-02-24T22:29:34.928Z,54.30
2018-02-24T22:32:02.846Z,53.90
2018-02-24T22:34:31.008Z,54.10
2018-02-24T22:36:59.082Z,54.00
2018-02-24T22:39:26.969Z,54.60
2018-02-24T22:41:54.928Z,54.50
2018-02-24T22:44:24.577Z,55.10
2018-02-24T22:46:52.368Z,55.30
2018-02-24T22:49:21.247Z,56.00
2018-02-24T22:51:50.388Z,55.40
2018-02-24T22:54:18.467Z,55.40
2018-02-24T22:56:46.316Z,55.90
2018-02-24T22:59:14.241Z,56.60
2018-02-24T23:01:42.089Z,55.50
2018-02-24T23:04:09.955Z,55.10
2018-02-24T23:06:38.009Z,55.70
2018-02-24T23:09:05.888Z,56.20
2018-02-24T23:11:33.728Z,55.60
2018-02-24T23:14:03.089Z,55.60
2018-02-24T23:16:31.008Z,55.60
2018-02-24T23:18:59.136Z,56.20
2018-02-24T23:21:27.138Z,56.60
2018-02-24T23:23:55.109Z,57.60
2018-02-24T23:26:22.932Z,57.20
2018-02-24T23:28:51.808Z,58.80
2018-02-24T23:31:19.788Z,58.80
2018-02-24T23:33:47.748Z,58.60
2018-02-24T23:36:15.669Z,59.10
2018-02-24T23:38:43.530Z,57.80
2018-02-24T23:41:11.648Z,57.50
2018-02-24T23:43:39.588Z,56.00
2018-02-24T23:46:07.588Z,55.50
2018-02-24T23:48:35.830Z,55.40
2018-02-24T23:51:04.568Z,56.40
2018-02-24T23:53:32.388Z,56.40
2018-02-24T23:56:00.251Z,57.60
2018-02-24T23:58:28.208Z,58.50
